Time;durP1;ratioP1;P1;durP2;ratioP2;P2;SDS_P1;SDS_P2;PMS_P1;PMS_P2;Temp;Humidity;BMP_temperature;BMP_pressure;BME280_temperature;BME280_humidity;BME280_pressure;Samples;Min_cycle;Max_cycle;Signal;HPM_P1;HPM_P2
2023/12/08 14:38:31;;;;;;;10.52;4.35;;;;;;;;;;5110375;27;20461;-63
2023/12/08 14:40:57;;;;;;;10.80;4.65;;;;;;;;;;5110281;28;20036;-64
2023/12/08 14:43:22;;;;;;;13.52;5.20;;;;;;;;;;5110513;28;20434;-64
2023/12/08 14:45:48;;;;;;;6.68;4.60;;;;;;;;;;5110245;28;20073;-64
2023/12/08 14:48:14;;;;;;;11.75;5.28;;;;;;;;;;5110224;28;20491;-63
2023/12/08 14:50:40;;;;;;;7.70;5.25;;;;;;;;;;5110062;28;20028;-64
2023/12/08 14:53:06;;;;;;;21.52;6.20;;;;;;;;;;5110057;28;20034;-63
2023/12/08 14:55:33;;;;;;;15.90;6.18;;;;;;;;;;5110071;28;20051;-63
2023/12/08 14:57:59;;;;;;;8.48;5.20;;;;;;;;;;5109462;28;20542;-63
2023/12/08 15:00:24;;;;;;;6.90;4.65;;;;;;;;;;5108929;28;20051;-63
2023/12/08 15:02:50;;;;;;;8.02;5.00;;;;;;;;;;5109213;28;20209;-63
2023/12/08 15:05:16;;;;;;;8.95;5.10;;;;;;;;;;5109339;28;20092;-63
2023/12/08 15:07:42;;;;;;;9.50;5.28;;;;;;;;;;5109600;28;20051;-63
2023/12/08 15:10:08;;;;;;;9.85;5.30;;;;;;;;;;5109512;28;20472;-63
2023/12/08 15:12:35;;;;;;;13.70;5.65;;;;;;;;;;5109270;28;20020;-63
2023/12/08 15:15:01;;;;;;;11.20;6.53;;;;;;;;;;5109639;28;20032;-63
2023/12/08 15:17:26;;;;;;;7.40;5.10;;;;;;;;;;5109512;28;20115;-63
2023/12/08 15:19:54;;;;;;;8.98;5.20;;;;;;;;;;5109889;28;20023;-62
2023/12/08 15:22:20;;;;;;;11.43;5.22;;;;;;;;;;5109527;28;20065;-63
2023/12/08 15:24:45;;;;;;;9.13;5.03;;;;;;;;;;5109518;28;20410;-63
2023/12/08 15:27:11;;;;;;;6.38;4.72;;;;;;;;;;5109411;28;20023;-62
2023/12/08 15:29:36;;;;;;;7.05;5.38;;;;;;;;;;5109362;28;20073;-63
2023/12/08 15:32:02;;;;;;;8.40;5.25;;;;;;;;;;5109362;28;20020;-63
2023/12/08 15:34:28;;;;;;;9.07;5.30;;;;;;;;;;5109292;28;20079;-63
2023/12/08 15:36:53;;;;;;;8.93;5.10;;;;;;;;;;5109124;28;20058;-63
2023/12/08 15:39:19;;;;;;;7.93;4.90;;;;;;;;;;5109530;28;20024;-63
2023/12/08 15:41:45;;;;;;;7.35;4.63;;;;;;;;;;5109125;28;20472;-63
2023/12/08 15:44:11;;;;;;;5.75;4.70;;;;;;;;;;5109080;28;20028;-63
2023/12/08 15:46:36;;;;;;;8.65;5.30;;;;;;;;;;5108996;28;20043;-62
2023/12/08 15:49:03;;;;;;;6.72;4.72;;;;;;;;;;5100059;28;20020;-63
2023/12/08 15:51:28;;;;;;;12.80;4.97;;;;;;;;;;5095445;28;20032;-62
2023/12/08 15:53:54;;;;;;;5.30;4.32;;;;;;;;;;5095413;28;20016;-63
2023/12/08 15:56:19;;;;;;;6.38;4.45;;;;;;;;;;5095517;28;20021;-63
2023/12/08 15:58:45;;;;;;;8.95;5.05;;;;;;;;;;5095317;28;20074;-63
2023/12/08 16:01:18;;;;;;;8.00;4.70;;;;;;;;;;5095544;28;20028;-63
2023/12/08 16:03:43;;;;;;;7.00;5.00;;;;;;;;;;5095145;28;20032;-63
2023/12/08 16:06:16;;;;;;;9.23;4.82;;;;;;;;;;5095055;28;20081;-63
2023/12/08 16:08:42;;;;;;;5.70;4.50;;;;;;;;;;5095024;28;20368;-63
2023/12/08 16:11:09;;;;;;;5.53;4.35;;;;;;;;;;5095332;28;20024;-63
2023/12/08 16:13:36;;;;;;;6.38;4.03;;;;;;;;;;5095020;28;20031;-63
2023/12/08 16:16:07;;;;;;;7.80;4.32;;;;;;;;;;5094972;28;20024;-63
2023/12/08 16:18:33;;;;;;;6.07;4.72;;;;;;;;;;5094960;28;20020;-63
2023/12/08 16:21:00;;;;;;;9.05;4.55;;;;;;;;;;5094609;28;20028;-62
2023/12/08 16:23:25;;;;;;;5.35;4.40;;;;;;;;;;5094978;28;20048;-62
2023/12/08 16:25:51;;;;;;;6.07;3.97;;;;;;;;;;5094576;28;20507;-63
2023/12/08 16:28:16;;;;;;;5.95;4.55;;;;;;;;;;5093367;28;20024;-63
2023/12/08 16:30:42;;;;;;;7.00;4.43;;;;;;;;;;5093661;28;20024;-63
2023/12/08 16:33:07;;;;;;;6.15;4.20;;;;;;;;;;5093361;28;20035;-63
2023/12/08 16:35:33;;;;;;;7.57;4.78;;;;;;;;;;5094362;28;20024;-63
2023/12/08 16:37:58;;;;;;;7.65;4.65;;;;;;;;;;5092561;28;20174;-63
2023/12/08 16:40:24;;;;;;;8.38;4.40;;;;;;;;;;5094103;28;20028;-63
2023/12/08 16:42:49;;;;;;;6.07;4.10;;;;;;;;;;5094552;28;20028;-63
2023/12/08 16:45:15;;;;;;;8.13;4.60;;;;;;;;;;5094429;28;20062;-63
2023/12/08 16:47:41;;;;;;;6.85;4.60;;;;;;;;;;5094210;28;20036;-63
2023/12/08 16:50:07;;;;;;;5.72;4.45;;;;;;;;;;5094276;28;20390;-63
2023/12/08 16:52:32;;;;;;;5.25;4.30;;;;;;;;;;5094529;28;20051;-62
2023/12/08 16:54:58;;;;;;;5.63;4.20;;;;;;;;;;5094165;28;20542;-63
2023/12/08 16:57:23;;;;;;;5.18;4.05;;;;;;;;;;5094154;28;20381;-63
2023/12/08 16:59:51;;;;;;;5.45;4.35;;;;;;;;;;5093313;28;20030;-63
2023/12/08 17:02:16;;;;;;;5.55;4.63;;;;;;;;;;5093941;28;20024;-63
2023/12/08 17:04:42;;;;;;;6.57;4.43;;;;;;;;;;5094040;28;20532;-63
2023/12/08 17:07:08;;;;;;;8.85;4.50;;;;;;;;;;5094403;28;20020;-63
2023/12/08 17:09:34;;;;;;;5.57;4.10;;;;;;;;;;5094217;28;20020;-63
2023/12/08 17:11:59;;;;;;;6.35;4.00;;;;;;;;;;5093903;28;20052;-63
2023/12/08 17:14:25;;;;;;;5.07;3.80;;;;;;;;;;5093757;28;20020;-63
2023/12/08 17:16:50;;;;;;;5.30;4.20;;;;;;;;;;5094054;28;20069;-63
2023/12/08 17:19:16;;;;;;;6.13;4.32;;;;;;;;;;5093725;28;20025;-62
2023/12/08 17:21:41;;;;;;;9.07;4.60;;;;;;;;;;5093903;28;20111;-63
2023/12/08 17:24:07;;;;;;;6.28;4.28;;;;;;;;;;5093622;28;20052;-63
2023/12/08 17:26:32;;;;;;;5.88;4.10;;;;;;;;;;5093500;28;20410;-63
2023/12/08 17:28:58;;;;;;;5.95;4.18;;;;;;;;;;5093542;28;20031;-63
2023/12/08 17:31:23;;;;;;;5.30;4.32;;;;;;;;;;5093727;28;20023;-63
2023/12/08 17:33:49;;;;;;;5.28;4.18;;;;;;;;;;5093400;28;20388;-63
2023/12/08 17:36:15;;;;;;;6.35;4.32;;;;;;;;;;5093145;28;20052;-63
2023/12/08 17:38:41;;;;;;;5.55;3.90;;;;;;;;;;5093681;28;20046;-63
2023/12/08 17:41:07;;;;;;;6.63;4.85;;;;;;;;;;5092699;28;20027;-63
2023/12/08 17:43:33;;;;;;;4.90;4.32;;;;;;;;;;5092382;28;20024;-63
2023/12/08 17:46:00;;;;;;;6.80;4.50;;;;;;;;;;5091394;28;20501;-63
2023/12/08 17:48:26;;;;;;;7.60;4.65;;;;;;;;;;5092045;28;20028;-63
2023/12/08 17:50:52;;;;;;;5.80;4.10;;;;;;;;;;5092760;28;20070;-63
2023/12/08 17:53:17;;;;;;;5.15;4.10;;;;;;;;;;5092580;28;20063;-63
2023/12/08 17:55:43;;;;;;;5.00;4.07;;;;;;;;;;5092629;28;20081;-63
2023/12/08 17:58:09;;;;;;;7.07;3.85;;;;;;;;;;5092754;28;20495;-63
2023/12/08 18:00:34;;;;;;;5.82;4.20;;;;;;;;;;5092952;28;20034;-62
2023/12/08 18:03:01;;;;;;;6.15;4.10;;;;;;;;;;5093260;28;20107;-63
2023/12/08 18:05:26;;;;;;;6.03;4.30;;;;;;;;;;5092914;28;20073;-63
2023/12/08 18:07:51;;;;;;;5.97;4.32;;;;;;;;;;5092795;28;20020;-63
2023/12/08 18:10:17;;;;;;;5.13;4.00;;;;;;;;;;5091321;28;20056;-62
2023/12/08 18:12:42;;;;;;;5.65;4.20;;;;;;;;;;5092566;28;20072;-63
2023/12/08 18:15:09;;;;;;;5.72;4.40;;;;;;;;;;5092709;28;20035;-63
2023/12/08 18:17:34;;;;;;;6.30;4.10;;;;;;;;;;5092729;28;20120;-63
2023/12/08 18:20:00;;;;;;;5.55;4.50;;;;;;;;;;5092704;28;20496;-63
2023/12/08 18:22:27;;;;;;;6.45;4.22;;;;;;;;;;5092621;28;20385;-63
2023/12/08 18:24:54;;;;;;;5.88;4.00;;;;;;;;;;5092575;28;20031;-63
2023/12/08 18:27:20;;;;;;;6.32;4.38;;;;;;;;;;5092549;28;20020;-62
2023/12/08 18:29:45;;;;;;;6.50;4.28;;;;;;;;;;5092803;28;20038;-63
2023/12/08 18:32:11;;;;;;;5.45;4.03;;;;;;;;;;5092480;28;20380;-63
2023/12/08 18:34:36;;;;;;;5.22;4.35;;;;;;;;;;5092556;28;20024;-63
2023/12/08 18:37:02;;;;;;;5.97;4.40;;;;;;;;;;5092328;28;20040;-63
2023/12/08 18:39:28;;;;;;;5.00;3.83;;;;;;;;;;5092744;28;20064;-63
2023/12/08 18:41:53;;;;;;;5.72;4.00;;;;;;;;;;5092476;28;20107;-62
2023/12/08 18:44:19;;;;;;;5.10;4.20;;;;;;;;;;5092360;28;20024;-62
2023/12/08 18:46:44;;;;;;;8.07;4.38;;;;;;;;;;5092346;28;20407;-63
2023/12/08 18:49:10;;;;;;;6.32;4.22;;;;;;;;;;5092613;28;20032;-65
2023/12/08 18:51:36;;;;;;;5.22;3.88;;;;;;;;;;5092289;28;20028;-65
2023/12/08 18:54:02;;;;;;;4.55;3.95;;;;;;;;;;5092314;28;20016;-64
2023/12/08 18:56:27;;;;;;;5.07;3.72;;;;;;;;;;5092231;28;20027;-64
2023/12/08 18:58:53;;;;;;;4.40;3.72;;;;;;;;;;5092343;28;20126;-63
2023/12/08 19:01:27;;;;;;;5.15;3.92;;;;;;;;;;5092259;28;20056;-64
2023/12/08 19:03:52;;;;;;;9.52;4.30;;;;;;;;;;5092265;28;20529;-64
2023/12/08 19:06:19;;;;;;;7.93;4.13;;;;;;;;;;5092447;28;20032;-65
2023/12/08 19:08:44;;;;;;;6.78;4.63;;;;;;;;;;5092041;28;20039;-63
2023/12/08 19:11:10;;;;;;;9.80;4.47;;;;;;;;;;5092029;28;20020;-62
2023/12/08 19:13:36;;;;;;;7.63;5.07;;;;;;;;;;5092163;28;20016;-63
2023/12/08 19:16:04;;;;;;;10.23;5.53;;;;;;;;;;5092159;28;20089;-63
2023/12/08 19:18:30;;;;;;;9.50;5.82;;;;;;;;;;5092010;28;20034;-63
2023/12/08 19:20:55;;;;;;;12.40;6.70;;;;;;;;;;5092223;28;20016;-62
2023/12/08 19:23:23;;;;;;;9.50;6.10;;;;;;;;;;5092631;28;20160;-64
2023/12/08 19:25:50;;;;;;;9.75;6.03;;;;;;;;;;5095649;28;20031;-63
2023/12/08 19:28:15;;;;;;;9.68;5.68;;;;;;;;;;5095994;28;20034;-63
2023/12/08 19:30:42;;;;;;;19.23;5.88;;;;;;;;;;5095755;28;20447;-64
2023/12/08 19:33:09;;;;;;;6.85;5.22;;;;;;;;;;5095708;28;20028;-64
2023/12/08 19:35:36;;;;;;;9.75;5.70;;;;;;;;;;5095746;28;20039;-64
2023/12/08 19:38:02;;;;;;;11.05;5.90;;;;;;;;;;5095463;28;20051;-64
2023/12/08 19:40:28;;;;;;;8.85;6.43;;;;;;;;;;5095719;28;20028;-64
2023/12/08 19:42:54;;;;;;;9.18;5.68;;;;;;;;;;5095619;28;20073;-64
2023/12/08 19:45:19;;;;;;;12.00;6.53;;;;;;;;;;5095519;28;20072;-63
2023/12/08 19:47:45;;;;;;;10.65;6.20;;;;;;;;;;5095734;28;20032;-64
2023/12/08 19:50:11;;;;;;;8.80;6.38;;;;;;;;;;5095485;28;20391;-64
2023/12/08 19:52:37;;;;;;;11.38;7.35;;;;;;;;;;5095342;28;20023;-64
2023/12/08 19:55:03;;;;;;;8.30;6.00;;;;;;;;;;5095663;28;20032;-64
2023/12/08 19:57:28;;;;;;;9.25;6.07;;;;;;;;;;5095324;28;20380;-64
2023/12/08 19:59:55;;;;;;;10.90;6.50;;;;;;;;;;5095609;28;20020;-64
2023/12/08 20:02:22;;;;;;;9.52;6.70;;;;;;;;;;5095270;28;20568;-65
2023/12/08 20:04:48;;;;;;;13.32;6.55;;;;;;;;;;5095167;28;20016;-63
2023/12/08 20:07:14;;;;;;;12.45;6.38;;;;;;;;;;5095088;28;20024;-64
2023/12/08 20:09:40;;;;;;;14.45;6.78;;;;;;;;;;5095086;28;20021;-64
2023/12/08 20:12:06;;;;;;;10.00;6.43;;;;;;;;;;5095033;28;20026;-64
2023/12/08 20:14:32;;;;;;;11.43;6.95;;;;;;;;;;5093834;28;20023;-64
2023/12/08 20:16:58;;;;;;;17.45;7.57;;;;;;;;;;5094949;28;20081;-65
2023/12/08 20:19:23;;;;;;;16.95;7.32;;;;;;;;;;5094949;28;20020;-63
2023/12/08 20:21:49;;;;;;;16.70;6.47;;;;;;;;;;5089934;28;20377;-62
2023/12/08 20:24:15;;;;;;;10.40;6.47;;;;;;;;;;5094762;28;20468;-64
2023/12/08 20:26:45;;;;;;;13.27;6.43;;;;;;;;;;5094687;28;20047;-63
2023/12/08 20:29:12;;;;;;;13.10;5.80;;;;;;;;;;5094704;28;20065;-63
2023/12/08 20:31:37;;;;;;;12.43;6.05;;;;;;;;;;5094435;28;20080;-63
2023/12/08 20:34:03;;;;;;;10.90;6.43;;;;;;;;;;5094329;28;20016;-64
2023/12/08 20:36:28;;;;;;;11.38;6.43;;;;;;;;;;5094224;28;20116;-63
2023/12/08 20:38:54;;;;;;;14.35;7.68;;;;;;;;;;5094534;28;20035;-63
2023/12/08 20:41:20;;;;;;;21.05;6.93;;;;;;;;;;5094468;28;20533;-63
2023/12/08 20:43:46;;;;;;;15.48;7.00;;;;;;;;;;5094368;28;20023;-64
2023/12/08 20:46:11;;;;;;;13.73;8.05;;;;;;;;;;5094385;28;20024;-63
2023/12/08 20:48:37;;;;;;;12.10;8.30;;;;;;;;;;5094473;28;20028;-64
2023/12/08 20:51:02;;;;;;;12.13;8.15;;;;;;;;;;5094038;28;20047;-64
2023/12/08 20:53:30;;;;;;;12.48;9.23;;;;;;;;;;5093991;28;20034;-64
2023/12/08 20:55:56;;;;;;;15.02;8.23;;;;;;;;;;5093806;28;20028;-64
2023/12/08 20:58:22;;;;;;;16.65;9.25;;;;;;;;;;5093736;28;20077;-63
2023/12/08 21:00:47;;;;;;;17.10;10.32;;;;;;;;;;5093293;28;20431;-63
2023/12/08 21:03:13;;;;;;;15.18;10.43;;;;;;;;;;5093677;28;20107;-62
2023/12/08 21:05:38;;;;;;;18.30;10.05;;;;;;;;;;5093813;28;20036;-64
2023/12/08 21:08:04;;;;;;;16.45;11.02;;;;;;;;;;5093871;28;20066;-63
2023/12/08 21:10:29;;;;;;;15.63;10.00;;;;;;;;;;5093803;28;20025;-63
2023/12/08 21:12:55;;;;;;;18.70;10.93;;;;;;;;;;5093857;28;20106;-64
2023/12/08 21:15:20;;;;;;;18.52;11.15;;;;;;;;;;5094141;28;20111;-63
2023/12/08 21:17:47;;;;;;;16.40;10.15;;;;;;;;;;5093832;28;20497;-63
2023/12/08 21:20:13;;;;;;;19.27;10.43;;;;;;;;;;5094004;28;20024;-63
2023/12/08 21:22:41;;;;;;;17.35;11.63;;;;;;;;;;5093906;28;20487;-63
2023/12/08 21:25:10;;;;;;;17.98;11.27;;;;;;;;;;5093846;28;20512;-65
2023/12/08 21:27:38;;;;;;;19.27;12.67;;;;;;;;;;5093701;28;20031;-64
2023/12/08 21:30:05;;;;;;;18.30;12.15;;;;;;;;;;5093456;28;20030;-64
2023/12/08 21:32:30;;;;;;;17.25;11.48;;;;;;;;;;5093502;28;20047;-63
2023/12/08 21:34:56;;;;;;;24.48;12.30;;;;;;;;;;5093495;28;20460;-64
2023/12/08 21:37:21;;;;;;;18.05;12.30;;;;;;;;;;5093081;28;20127;-63
2023/12/08 21:39:47;;;;;;;19.77;11.77;;;;;;;;;;5093354;28;20476;-63
2023/12/08 21:42:14;;;;;;;19.30;11.82;;;;;;;;;;5093326;28;20527;-63
2023/12/08 21:44:39;;;;;;;24.65;12.13;;;;;;;;;;5093568;28;20427;-63
2023/12/08 21:47:05;;;;;;;17.05;11.48;;;;;;;;;;5092667;28;20028;-62
2023/12/08 21:49:30;;;;;;;19.35;11.27;;;;;;;;;;5093142;28;20420;-63
2023/12/08 21:51:56;;;;;;;20.83;11.35;;;;;;;;;;5093184;28;20028;-63
2023/12/08 21:54:21;;;;;;;20.75;11.68;;;;;;;;;;5092964;28;20099;-63
2023/12/08 21:56:47;;;;;;;18.63;11.15;;;;;;;;;;5092860;28;20051;-63
2023/12/08 21:59:12;;;;;;;17.30;10.63;;;;;;;;;;5091737;28;20027;-63
2023/12/08 22:01:43;;;;;;;16.20;11.60;;;;;;;;;;5091586;28;20024;-63
2023/12/08 22:04:09;;;;;;;17.30;10.57;;;;;;;;;;5092931;28;20028;-63
2023/12/08 22:06:34;;;;;;;19.50;10.07;;;;;;;;;;5092619;28;20031;-63
2023/12/08 22:09:00;;;;;;;16.75;10.07;;;;;;;;;;5092853;28;20056;-63
2023/12/08 22:11:25;;;;;;;18.17;10.95;;;;;;;;;;5092833;28;20028;-63
2023/12/08 22:13:52;;;;;;;16.83;10.15;;;;;;;;;;5092696;28;20031;-63
2023/12/08 22:16:21;;;;;;;15.63;9.93;;;;;;;;;;5092793;28;20028;-63
2023/12/08 22:18:48;;;;;;;14.90;9.87;;;;;;;;;;5092706;28;20111;-63
2023/12/08 22:21:13;;;;;;;21.00;10.60;;;;;;;;;;5092504;28;20264;-63
2023/12/08 22:23:39;;;;;;;18.33;10.07;;;;;;;;;;5092674;28;20481;-63
2023/12/08 22:26:05;;;;;;;19.45;9.43;;;;;;;;;;5092398;28;20032;-64
2023/12/08 22:28:31;;;;;;;16.15;9.93;;;;;;;;;;5092362;28;20115;-64
2023/12/08 22:30:56;;;;;;;17.48;9.32;;;;;;;;;;5092526;28;20540;-64
2023/12/08 22:33:22;;;;;;;16.98;9.35;;;;;;;;;;5092111;28;20020;-63
2023/12/08 22:35:47;;;;;;;14.52;8.90;;;;;;;;;;5091919;28;20016;-67
2023/12/08 22:38:14;;;;;;;15.07;9.32;;;;;;;;;;5090879;28;20135;-66
2023/12/08 22:40:40;;;;;;;17.02;9.77;;;;;;;;;;5092422;28;20056;-63
2023/12/08 22:43:05;;;;;;;18.65;9.43;;;;;;;;;;5092148;28;20063;-63
2023/12/08 22:45:31;;;;;;;15.05;9.18;;;;;;;;;;5092623;28;20498;-64
2023/12/08 22:47:56;;;;;;;16.08;9.23;;;;;;;;;;5091732;28;20456;-65
2023/12/08 22:50:22;;;;;;;15.35;9.38;;;;;;;;;;5092165;28;20032;-63
2023/12/08 22:52:47;;;;;;;17.13;9.55;;;;;;;;;;5092464;28;20024;-64
2023/12/08 22:55:13;;;;;;;16.02;9.05;;;;;;;;;;5092367;28;20481;-64
2023/12/08 22:57:38;;;;;;;19.33;8.98;;;;;;;;;;5090743;28;20103;-64
2023/12/08 23:00:06;;;;;;;16.35;9.25;;;;;;;;;;5094476;28;20490;-64
2023/12/08 23:02:32;;;;;;;14.07;8.70;;;;;;;;;;5096189;28;20384;-64
2023/12/08 23:04:57;;;;;;;13.10;9.25;;;;;;;;;;5096145;28;20016;-64
2023/12/08 23:07:23;;;;;;;13.93;8.68;;;;;;;;;;5095807;28;20027;-64
2023/12/08 23:09:48;;;;;;;15.52;8.95;;;;;;;;;;5096094;28;20024;-64
2023/12/08 23:12:14;;;;;;;15.23;8.43;;;;;;;;;;5095989;28;20406;-64
2023/12/08 23:14:39;;;;;;;15.93;9.00;;;;;;;;;;5095979;28;20020;-67
2023/12/08 23:17:05;;;;;;;15.60;8.75;;;;;;;;;;5095865;28;20029;-64
2023/12/08 23:19:30;;;;;;;13.70;9.05;;;;;;;;;;5096097;28;20028;-63
2023/12/08 23:21:56;;;;;;;11.07;8.18;;;;;;;;;;5095891;28;20020;-64
2023/12/08 23:24:25;;;;;;;13.38;8.38;;;;;;;;;;5095810;28;20028;-62
2023/12/08 23:26:51;;;;;;;12.53;8.23;;;;;;;;;;5095508;28;20187;-63
2023/12/08 23:29:17;;;;;;;16.00;8.15;;;;;;;;;;5095895;28;20020;-63
2023/12/08 23:31:43;;;;;;;16.33;8.32;;;;;;;;;;5095715;28;20483;-62
2023/12/08 23:34:09;;;;;;;12.85;7.97;;;;;;;;;;5095767;28;20613;-63
2023/12/08 23:36:35;;;;;;;13.20;8.65;;;;;;;;;;5095261;28;20139;-62
2023/12/08 23:39:02;;;;;;;13.63;8.30;;;;;;;;;;5095524;28;20027;-63
2023/12/08 23:41:28;;;;;;;11.50;8.15;;;;;;;;;;5095107;28;20020;-62
2023/12/08 23:43:53;;;;;;;11.98;7.55;;;;;;;;;;5095304;28;20364;-62
2023/12/08 23:46:19;;;;;;;12.95;7.97;;;;;;;;;;5095164;28;20381;-62
2023/12/08 23:48:45;;;;;;;13.98;7.55;;;;;;;;;;5095039;28;20039;-63
2023/12/08 23:51:11;;;;;;;15.27;7.88;;;;;;;;;;5095434;28;20032;-63
2023/12/08 23:53:36;;;;;;;14.13;8.38;;;;;;;;;;5095011;28;20462;-67
2023/12/08 23:56:02;;;;;;;10.55;8.05;;;;;;;;;;5095177;28;20020;-62
2023/12/08 23:58:28;;;;;;;12.63;7.80;;;;;;;;;;5094484;28;20081;-62
